Time;durP1;ratioP1;P1;durP2;ratioP2;P2;SDS_P1;SDS_P2;PMS_P1;PMS_P2;Temp;Humidity;BMP_temperature;BMP_pressure;BME280_temperature;BME280_humidity;BME280_pressure;Samples;Min_cycle;Max_cycle;Signal;HPM_P1;HPM_P2
2021/12/21 00:02:23;;;;;;;5.53;5.07;;;-3.20;99.90;;;;;;5045911;28;20195;-76
2021/12/21 00:04:49;;;;;;;14.93;4.38;;;-3.10;99.90;;;;;;5052174;28;20065;-76
2021/12/21 00:07:14;;;;;;;;;;;-3.10;99.90;;;;;;5052921;28;20171;-77
2021/12/21 00:09:40;;;;;;;12.70;5.43;;;-3.00;99.90;;;;;;5050096;28;20594;-77
2021/12/21 00:12:06;;;;;;;;;;;-3.00;99.90;;;;;;5051632;28;20037;-77
2021/12/21 00:19:44;;;;;;;;;;;-3.20;99.90;;;;;;5060552;28;20457;-76
2021/12/21 00:23:00;;;;;;;7.80;4.78;;;-3.30;99.90;;;;;;5064812;28;20453;-76
2021/12/21 00:24:58;;;;;;;7.07;4.55;;;-3.40;99.90;;;;;;5068253;28;20064;-76
2021/12/21 00:27:24;;;;;;;;;;;-3.50;99.90;;;;;;5053078;28;20036;-76
2021/12/21 00:29:49;;;;;;;4.65;3.63;;;-3.60;99.90;;;;;;5043798;28;20279;-76
2021/12/21 00:32:15;;;;;;;;;;;-3.60;99.90;;;;;;5079001;28;20045;-76
2021/12/21 00:34:40;;;;;;;5.43;4.90;;;-3.60;99.90;;;;;;5051264;28;20285;-76
2021/12/21 00:37:06;;;;;;;6.72;6.13;;;-3.60;99.90;;;;;;5046791;28;20037;-76
2021/12/21 00:39:32;;;;;;;;;;;-3.60;99.90;;;;;;5043587;28;20572;-76
2021/12/21 00:41:58;;;;;;;3.88;3.58;;;-3.50;99.90;;;;;;5043132;28;19959;-76
2021/12/21 00:44:23;;;;;;;;;;;-3.50;99.90;;;;;;5045987;28;20098;-77
2021/12/21 00:46:49;;;;;;;7.22;4.50;;;-3.50;99.90;;;;;;5055168;28;20008;-77
2021/12/21 00:49:16;;;;;;;;;;;-3.60;99.90;;;;;;5052149;28;20044;-76
2021/12/21 00:51:47;;;;;;;4.00;3.58;;;-3.60;99.90;;;;;;5077113;28;19916;-76
2021/12/21 00:54:14;;;;;;;7.70;4.85;;;-2.40;99.90;;;;;;5042551;28;20033;-76
2021/12/21 00:56:40;;;;;;;9.30;4.85;;;-3.70;99.90;;;;;;5048848;28;20076;-76
2021/12/21 00:59:06;;;;;;;;;;;-3.70;99.90;;;;;;5047145;28;20455;-77
2021/12/21 01:01:35;;;;;;;9.88;5.78;;;-3.70;99.90;;;;;;5049127;28;20004;-76
2021/12/21 01:04:03;;;;;;;3.50;3.20;;;-3.60;99.90;;;;;;5045944;28;20115;-76
2021/12/21 01:11:48;;;;;;;6.20;5.35;;;-3.70;99.90;;;;;;5035587;28;20063;-76
2021/12/21 01:19:36;;;;;;;3.10;2.85;;;-3.70;99.90;;;;;;5050163;28;20049;-76
2021/12/21 01:29:53;;;;;;;5.70;4.78;;;-3.80;99.90;;;;;;5050766;28;19925;-76
2021/12/21 01:35:14;;;;;;;16.90;4.72;;;-3.70;99.90;;;;;;5046414;28;20041;-76
2021/12/21 01:40:22;;;;;;;5.95;4.43;;;-3.70;99.90;;;;;;5050647;28;20045;-76
2021/12/21 01:50:53;;;;;;;4.10;3.80;;;-3.90;99.90;;;;;;5051509;28;20048;-77
2021/12/21 01:53:19;;;;;;;3.42;3.13;;;-3.90;99.90;;;;;;5047008;28;20395;-76
2021/12/21 01:55:46;;;;;;;11.32;5.72;;;-4.00;99.90;;;;;;5046694;28;20041;-77
2021/12/21 01:58:12;;;;;;;10.57;4.13;;;-4.00;99.90;;;;;;5045416;28;20459;-76
2021/12/21 02:00:38;;;;;;;;;;;-4.00;99.90;;;;;;5044615;28;20084;-76
2021/12/21 02:03:05;;;;;;;9.35;3.83;;;-4.00;99.90;;;;;;5072847;28;19982;-76
2021/12/21 02:05:31;;;;;;;8.63;5.43;;;-4.00;99.90;;;;;;5034467;28;20057;-76
2021/12/21 02:07:57;;;;;;;4.63;4.32;;;-4.10;99.90;;;;;;5046533;28;20124;-76
2021/12/21 02:10:23;;;;;;;;;;;-4.10;99.90;;;;;;5046551;28;20042;-76
2021/12/21 02:12:49;;;;;;;3.03;1.98;;;-4.10;99.90;;;;;;5037847;28;19924;-76
2021/12/21 02:15:15;;;;;;;4.40;4.10;;;-4.10;99.90;;;;;;5048017;28;20041;-77
2021/12/21 02:22:58;;;;;;;4.70;4.28;;;-4.20;99.90;;;;;;5045383;28;20105;-76
2021/12/21 02:28:11;;;;;;;9.65;4.50;;;-4.20;99.90;;;;;;5042313;28;20052;-76
2021/12/21 02:30:41;;;;;;;13.05;4.50;;;-4.20;99.90;;;;;;5047377;28;20125;-76
2021/12/21 02:33:06;;;;;;;5.70;4.35;;;-4.30;99.90;;;;;;5040244;28;20494;-77
2021/12/21 02:35:32;;;;;;;;;;;-4.20;99.90;;;;;;5046240;28;20048;-76
2021/12/21 02:37:58;;;;;;;4.78;4.38;;;-4.10;99.90;;;;;;5033053;28;20286;-76
2021/12/21 02:40:23;;;;;;;;;;;-4.00;99.90;;;;;;5050255;28;20052;-76
2021/12/21 02:42:49;;;;;;;2.67;2.47;;;-4.20;99.90;;;;;;5045553;28;19936;-76
2021/12/21 02:45:15;;;;;;;4.80;4.40;;;-4.10;99.90;;;;;;5045841;28;20119;-76
2021/12/21 02:47:40;;;;;;;;;;;-4.10;99.90;;;;;;5030769;28;20045;-76
2021/12/21 02:50:07;;;;;;;3.22;2.95;;;-4.10;99.90;;;;;;5035565;28;19939;-76
2021/12/21 02:52:33;;;;;;;3.60;3.22;;;-4.10;99.90;;;;;;5049762;28;20037;-76
2021/12/21 02:55:00;;;;;;;4.15;3.45;;;-3.80;99.90;;;;;;5022264;28;20044;-76
2021/12/21 02:57:26;;;;;;;5.90;4.55;;;-4.10;99.90;;;;;;5048795;28;20394;-76
2021/12/21 02:59:52;;;;;;;;;;;-4.10;99.90;;;;;;5051190;28;20064;-76
2021/12/21 03:02:18;;;;;;;4.55;4.10;;;-4.10;99.90;;;;;;5077955;28;19968;-76
2021/12/21 03:04:44;;;;;;;;;;;-4.10;99.90;;;;;;5049152;28;20051;-76
2021/12/21 03:09:41;;;;;;;6.03;5.13;;;-4.00;99.90;;;;;;5062516;28;20039;-76
2021/12/21 03:15:00;;;;;;;2.95;2.42;;;-3.90;99.90;;;;;;5032893;28;20528;-76
2021/12/21 03:17:26;;;;;;;;;;;-3.90;99.90;;;;;;5032822;28;20072;-76
2021/12/21 03:19:52;;;;;;;8.95;3.65;;;-4.00;99.90;;;;;;5042161;28;19917;-76
2021/12/21 03:22:17;;;;;;;;;;;-3.90;99.90;;;;;;5039222;28;20037;-75
2021/12/21 03:24:44;;;;;;;3.80;3.33;;;-3.90;99.90;;;;;;5031813;28;19936;-76
2021/12/21 03:27:10;;;;;;;4.88;4.10;;;-3.80;99.90;;;;;;5048955;28;20051;-76
2021/12/21 03:29:37;;;;;;;6.03;3.13;;;-3.80;99.90;;;;;;5031968;28;20154;-76
2021/12/21 03:32:02;;;;;;;;;;;-3.90;99.90;;;;;;5045643;28;20033;-76
2021/12/21 03:34:29;;;;;;;4.20;3.90;;;-4.00;99.90;;;;;;5048631;28;19939;-75
2021/12/21 03:36:55;;;;;;;5.15;4.68;;;-4.00;99.90;;;;;;5051823;28;20052;-75
2021/12/21 03:39:22;;;;;;;4.38;3.63;;;-4.10;99.90;;;;;;5041488;28;20052;-76
2021/12/21 03:41:56;;;;;;;8.77;4.78;;;-4.10;99.90;;;;;;5052243;28;20049;-75
2021/12/21 03:44:23;;;;;;;7.35;3.58;;;-4.10;99.90;;;;;;5052922;28;20131;-75
2021/12/21 03:46:52;;;;;;;5.60;4.97;;;-4.20;99.90;;;;;;5045191;28;20037;-76
2021/12/21 03:52:02;;;;;;;4.13;3.40;;;-4.30;99.90;;;;;;5058359;28;20445;-75
2021/12/21 03:54:28;;;;;;;3.05;2.60;;;-4.30;99.90;;;;;;5048526;28;20431;-75
2021/12/21 03:56:53;;;;;;;;;;;-4.40;99.90;;;;;;5033956;28;20180;-75
2021/12/21 03:59:20;;;;;;;2.15;1.98;;;-4.40;99.90;;;;;;5050463;28;20290;-75
2021/12/21 04:01:46;;;;;;;3.03;2.75;;;-4.50;99.90;;;;;;5052941;28;20056;-75
2021/12/21 04:04:12;;;;;;;19.52;4.43;;;-4.50;99.90;;;;;;5048268;28;20379;-76
2021/12/21 04:06:38;;;;;;;;;;;-4.50;99.90;;;;;;5051140;28;20055;-75
2021/12/21 04:09:06;;;;;;;2.38;1.98;;;-4.60;99.90;;;;;;5080838;28;20289;-75
2021/12/21 04:11:32;;;;;;;6.13;3.20;;;-4.60;99.90;;;;;;5052509;28;20029;-77
2021/12/21 04:13:58;;;;;;;8.38;3.00;;;-4.60;99.90;;;;;;5033314;28;20120;-76
2021/12/21 04:16:24;;;;;;;3.53;3.22;;;-4.60;99.90;;;;;;5053978;28;20103;-76
2021/12/21 04:18:50;;;;;;;;;;;-4.70;99.90;;;;;;5052407;28;20519;-77
2021/12/21 04:21:15;;;;;;;3.88;2.60;;;-4.70;99.90;;;;;;5048953;28;19917;-77
2021/12/21 04:23:42;;;;;;;;;;;-4.70;99.90;;;;;;5050991;28;20045;-77
2021/12/21 04:26:12;;;;;;;3.13;2.27;;;-4.60;99.90;;;;;;5052151;28;20449;-77
2021/12/21 04:28:38;;;;;;;3.03;2.60;;;-4.70;99.90;;;;;;5051935;28;20043;-76
2021/12/21 04:31:05;;;;;;;5.00;2.83;;;-4.60;99.90;;;;;;5052899;28;20506;-76
2021/12/21 04:33:32;;;;;;;3.17;2.88;;;-4.70;99.90;;;;;;5052069;28;20522;-77
2021/12/21 04:35:58;;;;;;;2.97;2.72;;;-4.70;99.90;;;;;;5051547;28;20061;-75
2021/12/21 04:38:29;;;;;;;3.83;3.13;;;-4.70;99.90;;;;;;5051516;28;20087;-76
2021/12/21 04:41:02;;;;;;;3.25;2.75;;;-4.70;99.90;;;;;;5046318;28;20033;-76
2021/12/21 04:43:28;;;;;;;5.70;3.08;;;-4.70;99.90;;;;;;5040991;28;20380;-78
2021/12/21 04:45:54;;;;;;;;;;;-4.60;99.90;;;;;;5047873;28;20114;-75
2021/12/21 04:48:20;;;;;;;3.58;3.30;;;-4.60;99.90;;;;;;5052554;28;20274;-76
2021/12/21 04:50:46;;;;;;;10.20;3.63;;;-4.60;99.90;;;;;;5051842;28;20036;-75
2021/12/21 04:53:12;;;;;;;4.47;3.95;;;-4.60;99.90;;;;;;5044756;28;20387;-76
2021/12/21 04:55:38;;;;;;;5.82;3.30;;;-4.60;99.90;;;;;;5082131;28;20083;-76
2021/12/21 04:58:03;;;;;;;;;;;-4.60;99.90;;;;;;5043362;28;20073;-75
2021/12/21 05:00:30;;;;;;;3.38;2.97;;;-4.60;99.90;;;;;;5051419;28;19943;-76
2021/12/21 05:02:56;;;;;;;2.00;1.67;;;-4.60;99.90;;;;;;5051199;28;20044;-77
2021/12/21 05:05:21;;;;;;;;;;;-4.60;99.90;;;;;;5052022;28;20376;-76
2021/12/21 05:07:52;;;;;;;2.65;2.45;;;-4.60;99.90;;;;;;5033123;28;19917;-77
2021/12/21 05:10:19;;;;;;;3.38;3.10;;;-4.60;99.90;;;;;;5049528;28;20116;-75
2021/12/21 05:12:45;;;;;;;2.92;2.72;;;-4.60;99.90;;;;;;5040854;28;20047;-78
2021/12/21 05:15:11;;;;;;;;;;;-4.60;99.90;;;;;;5044485;28;20394;-75
2021/12/21 05:17:37;;;;;;;9.05;3.72;;;-4.70;99.90;;;;;;5086582;28;19920;-76
2021/12/21 05:20:03;;;;;;;;;;;-4.70;99.90;;;;;;5046697;28;20052;-78
2021/12/21 05:22:29;;;;;;;4.80;3.50;;;-4.70;99.90;;;;;;5075663;28;19916;-77
2021/12/21 05:24:55;;;;;;;;;;;-4.70;99.90;;;;;;5049238;28;20467;-75
2021/12/21 05:27:21;;;;;;;1.63;1.52;;;-4.80;99.90;;;;;;5081660;28;19925;-77
2021/12/21 05:29:46;;;;;;;2.90;2.70;;;-4.80;99.90;;;;;;5032072;28;20128;-77
2021/12/21 05:32:12;;;;;;;;;;;-4.80;99.90;;;;;;5047747;28;20177;-78
2021/12/21 05:34:38;;;;;;;3.53;3.28;;;-4.80;99.90;;;;;;5050571;28;19919;-77
2021/12/21 05:37:06;;;;;;;;;;;-4.80;99.90;;;;;;5057792;28;20064;-76
2021/12/21 05:40:17;;;;;;;3.17;2.35;;;-4.80;99.90;;;;;;5047271;28;19917;-76
2021/12/21 05:42:23;;;;;;;9.80;4.25;;;-4.80;99.90;;;;;;5031623;28;20410;-75
2021/12/21 05:44:52;;;;;;;2.72;2.20;;;-4.60;99.90;;;;;;5043432;28;20044;-76
2021/12/21 05:47:18;;;;;;;8.13;3.58;;;-4.50;99.90;;;;;;5024791;28;20037;-78
2021/12/21 05:49:44;;;;;;;4.50;2.35;;;-4.40;99.90;;;;;;5049816;28;20047;-76
2021/12/21 05:52:10;;;;;;;;;;;-4.20;99.90;;;;;;5051329;28;20037;-78
2021/12/21 05:54:35;;;;;;;1.35;1.25;;;-4.10;99.90;;;;;;5078890;28;19960;-76
2021/12/21 05:57:01;;;;;;;;;;;-4.00;99.90;;;;;;5050336;28;20120;-77
2021/12/21 05:59:27;;;;;;;3.45;2.58;;;-3.90;99.90;;;;;;5031931;28;19923;-76
2021/12/21 06:01:53;;;;;;;;;;;-4.00;99.90;;;;;;5040680;28;20554;-78
2021/12/21 06:04:18;;;;;;;2.65;2.45;;;-4.00;99.90;;;;;;5038316;28;19921;-77
2021/12/21 06:06:44;;;;;;;;;;;-4.10;99.90;;;;;;5038983;28;20037;-78
2021/12/21 06:09:12;;;;;;;2.47;1.95;;;-4.20;99.90;;;;;;5080944;28;19921;-76
2021/12/21 06:11:45;;;;;;;5.88;2.88;;;-4.30;99.90;;;;;;5033513;28;20442;-77
2021/12/21 06:14:49;;;;;;;2.38;1.98;;;-4.40;99.90;;;;;;5041954;28;20049;-76
2021/12/21 06:27:54;;;;;;;2.45;2.20;;;-4.50;99.90;;;;;;5050086;28;20037;-78
2021/12/21 06:30:20;;;;;;;1.52;1.42;;;-4.40;99.90;;;;;;5049609;28;20036;-77
2021/12/21 06:32:46;;;;;;;;;;;-4.30;99.90;;;;;;5049886;28;20505;-78
2021/12/21 06:35:13;;;;;;;1.83;1.73;;;-4.10;99.90;;;;;;5050830;28;19922;-77
2021/12/21 06:37:38;;;;;;;3.83;2.22;;;-4.00;99.90;;;;;;5050083;28;20032;-75
2021/12/21 06:40:04;;;;;;;;;;;-4.00;99.90;;;;;;5063511;28;20502;-77
2021/12/21 06:42:31;;;;;;;1.73;1.63;;;-4.00;99.90;;;;;;5041285;28;19924;-75
2021/12/21 06:44:59;;;;;;;5.53;1.67;;;-4.10;99.90;;;;;;5044548;28;20171;-78
2021/12/21 06:52:55;;;;;;;2.83;2.63;;;-4.20;99.90;;;;;;5048979;28;20430;-76
2021/12/21 06:55:21;;;;;;;;;;;-4.30;99.90;;;;;;5043363;28;20044;-76
2021/12/21 06:57:52;;;;;;;2.88;2.58;;;-4.40;99.90;;;;;;5055044;28;19974;-77
2021/12/21 07:00:19;;;;;;;;;;;-4.40;99.90;;;;;;5059829;28;20120;-77
2021/12/21 07:02:45;;;;;;;2.88;2.55;;;-4.50;99.90;;;;;;5043717;28;20079;-74
2021/12/21 07:05:12;;;;;;;2.05;1.85;;;-4.50;99.90;;;;;;5025145;28;20150;-74
2021/12/21 07:07:38;;;;;;;2.50;2.30;;;-4.60;99.90;;;;;;5041479;28;20065;-76
2021/12/21 07:10:08;;;;;;;;;;;-4.60;99.90;;;;;;5041624;28;20084;-76
2021/12/21 07:18:09;;;;;;;3.05;2.85;;;-4.40;99.90;;;;;;5047132;28;20056;-75
2021/12/21 07:20:35;;;;;;;4.78;3.38;;;-4.40;99.90;;;;;;5074430;28;20395;-75
2021/12/21 07:23:01;;;;;;;3.25;2.67;;;-4.40;99.90;;;;;;5058980;28;20044;-77
2021/12/21 07:25:27;;;;;;;;;;;-4.40;99.90;;;;;;5045458;28;20446;-76
2021/12/21 07:27:53;;;;;;;2.03;1.92;;;-4.10;99.90;;;;;;5043235;28;19923;-77
2021/12/21 07:30:21;;;;;;;2.90;2.70;;;-4.50;99.90;;;;;;5057735;28;20425;-76
2021/12/21 07:32:48;;;;;;;1.90;1.80;;;-4.50;99.90;;;;;;5044446;28;20045;-77
2021/12/21 07:35:14;;;;;;;7.18;3.60;;;-4.50;99.90;;;;;;5045376;28;20063;-78
2021/12/21 07:37:40;;;;;;;4.88;2.83;;;-4.60;99.90;;;;;;5044358;28;20053;-76
2021/12/21 07:40:07;;;;;;;;;;;-4.60;99.90;;;;;;5039734;28;20057;-78
2021/12/21 07:42:32;;;;;;;2.80;2.60;;;-4.50;99.90;;;;;;5044300;28;20012;-75
2021/12/21 07:44:58;;;;;;;;;;;-4.50;99.90;;;;;;5043581;28;20119;-77
2021/12/21 07:47:25;;;;;;;1.92;1.83;;;-4.50;99.90;;;;;;5041820;28;19931;-80
2021/12/21 07:49:51;;;;;;;;;;;-5.30;99.90;;;;;;5046265;28;20321;-77
2021/12/21 07:52:18;;;;;;;2.50;2.33;;;-4.50;99.90;;;;;;5049950;28;19923;-77
2021/12/21 07:54:44;;;;;;;2.13;1.92;;;-4.50;99.90;;;;;;5048322;28;20045;-78
2021/12/21 07:57:10;;;;;;;4.13;2.90;;;-3.80;99.90;;;;;;5057265;28;20052;-77
2021/12/21 07:59:37;;;;;;;1.95;1.83;;;-4.50;99.90;;;;;;5034321;28;20487;-78
2021/12/21 08:02:03;;;;;;;11.80;2.58;;;-4.50;99.90;;;;;;5017031;28;20079;-78
2021/12/21 08:04:29;;;;;;;;;;;-4.60;99.90;;;;;;5037590;28;20049;-79
2021/12/21 08:07:00;;;;;;;1.85;1.75;;;-4.60;99.90;;;;;;5053652;28;19928;-78
2021/12/21 08:09:32;;;;;;;4.78;3.30;;;-4.60;99.90;;;;;;5036392;28;20037;-77
2021/12/21 08:12:15;;;;;;;2.58;2.38;;;-4.60;99.90;;;;;;5039994;28;20056;-77
2021/12/21 08:14:42;;;;;;;4.13;3.20;;;-4.60;99.90;;;;;;5033407;28;20060;-77
2021/12/21 08:17:08;;;;;;;6.00;3.05;;;-3.70;99.90;;;;;;5032946;28;20041;-77
2021/12/21 08:19:33;;;;;;;;;;;-4.10;99.90;;;;;;5031606;28;20041;-79
2021/12/21 08:21:59;;;;;;;2.35;2.15;;;-3.40;99.90;;;;;;5078332;28;20390;-76
2021/12/21 08:24:25;;;;;;;;;;;-4.40;99.90;;;;;;5033245;28;20045;-78
2021/12/21 08:26:50;;;;;;;1.45;1.35;;;-4.40;99.90;;;;;;5049065;28;19925;-76
2021/12/21 08:29:16;;;;;;;;;;;-4.40;99.90;;;;;;5033631;28;20084;-80
2021/12/21 08:31:42;;;;;;;1.98;1.88;;;-4.20;99.90;;;;;;5032165;28;19921;-76
2021/12/21 08:34:10;;;;;;;3.00;2.70;;;-4.20;99.90;;;;;;5029000;28;20053;-75
2021/12/21 08:36:36;;;;;;;3.28;2.13;;;-3.20;99.90;;;;;;5030501;28;20056;-75
2021/12/21 08:39:04;;;;;;;;;;;-3.40;99.90;;;;;;5035407;28;20068;-75
2021/12/21 08:41:29;;;;;;;2.83;2.13;;;-4.00;99.90;;;;;;5061211;28;19921;-76
2021/12/21 08:43:56;;;;;;;4.82;3.00;;;-4.00;99.90;;;;;;5048912;28;20049;-79
2021/12/21 08:46:22;;;;;;;5.10;2.55;;;-3.80;99.90;;;;;;5047467;28;20047;-78
2021/12/21 08:48:48;;;;;;;;;;;-3.70;99.90;;;;;;5055986;28;20045;-76
2021/12/21 08:51:19;;;;;;;2.33;2.17;;;-3.60;99.90;;;;;;5066854;28;19921;-77
2021/12/21 08:53:54;;;;;;;9.88;2.90;;;-3.40;99.90;;;;;;5047807;28;20072;-79
2021/12/21 09:00:03;;;;;;;2.75;2.50;;;-2.70;99.90;;;;;;5040266;28;20049;-78
2021/12/21 09:02:33;;;;;;;2.75;2.38;;;-2.90;99.90;;;;;;5058184;28;20045;-76
2021/12/21 09:04:59;;;;;;;4.30;2.63;;;-0.70;99.90;;;;;;5028145;28;20053;-75
2021/12/21 09:07:24;;;;;;;6.07;2.35;;;-1.70;99.90;;;;;;5031461;28;20053;-74
2021/12/21 09:09:50;;;;;;;;;;;-2.20;99.90;;;;;;5050697;28;20609;-76
2021/12/21 09:12:16;;;;;;;2.47;2.28;;;-2.20;99.90;;;;;;5048554;28;20533;-79
2021/12/21 09:14:41;;;;;;;3.35;3.03;;;-2.20;99.90;;;;;;5045293;28;20577;-79
2021/12/21 09:17:07;;;;;;;2.90;2.05;;;-2.20;99.90;;;;;;5046559;28;20041;-75
2021/12/21 09:19:33;;;;;;;3.70;3.03;;;-2.20;99.90;;;;;;5047356;28;20044;-77
2021/12/21 09:21:59;;;;;;;;;;;-2.10;99.90;;;;;;5029923;28;20060;-75
2021/12/21 09:24:25;;;;;;;7.20;2.85;;;-2.00;99.90;;;;;;5048411;28;19936;-80
2021/12/21 09:26:50;;;;;;;3.88;2.85;;;-1.90;99.90;;;;;;5041442;28;20052;-76
2021/12/21 09:29:16;;;;;;;12.18;3.88;;;-1.90;99.90;;;;;;5026267;28;20144;-78
2021/12/21 09:31:44;;;;;;;17.88;4.35;;;-1.90;99.90;;;;;;5026391;28;20128;-78
2021/12/21 09:34:10;;;;;;;3.67;3.35;;;-1.90;99.90;;;;;;5048059;28;20053;-77
2021/12/21 09:36:36;;;;;;;7.68;3.53;;;-1.90;99.90;;;;;;5027985;28;20118;-77
2021/12/21 09:39:02;;;;;;;6.40;5.32;;;-1.90;99.90;;;;;;5035642;28;20052;-77
2021/12/21 09:41:28;;;;;;;6.53;3.65;;;-1.40;99.90;;;;;;5037521;28;20052;-79
2021/12/21 09:43:54;;;;;;;5.32;3.50;;;-1.60;99.90;;;;;;5051870;28;20045;-77
2021/12/21 09:46:20;;;;;;;;;;;-0.90;99.90;;;;;;5029864;28;20053;-77
2021/12/21 09:48:46;;;;;;;3.22;2.40;;;-1.50;99.90;;;;;;5073011;28;20035;-78
2021/12/21 09:51:11;;;;;;;;;;;-1.40;99.90;;;;;;5038562;28;20130;-76
2021/12/21 09:53:37;;;;;;;4.15;2.47;;;-1.30;99.90;;;;;;5050628;28;19967;-80
2021/12/21 09:56:04;;;;;;;;;;;-1.10;99.90;;;;;;5049888;28;20049;-77
2021/12/21 09:58:31;;;;;;;7.20;3.83;;;0.20;99.90;;;;;;5051901;28;20757;-78
2021/12/21 10:00:56;;;;;;;3.70;3.08;;;-1.00;99.90;;;;;;5043658;28;20110;-75
2021/12/21 10:03:23;;;;;;;4.05;3.65;;;-0.90;99.90;;;;;;5048480;28;20053;-77
2021/12/21 10:05:48;;;;;;;;;;;-0.80;99.90;;;;;;5050104;28;20061;-75
2021/12/21 10:08:19;;;;;;;2.78;2.58;;;-0.70;99.90;;;;;;5043808;28;19917;-75
2021/12/21 10:10:54;;;;;;;5.00;3.20;;;-0.10;99.90;;;;;;5037512;28;20043;-75
2021/12/21 10:13:23;;;;;;;4.45;4.03;;;-0.70;99.90;;;;;;5031398;28;20049;-76
2021/12/21 10:15:51;;;;;;;4.68;4.25;;;-0.70;99.90;;;;;;5063795;28;20041;-75
2021/12/21 10:18:27;;;;;;;5.47;3.75;;;-0.70;99.90;;;;;;5047105;28;20044;-76
2021/12/21 10:20:54;;;;;;;8.43;4.13;;;-0.60;99.90;;;;;;5045386;28;20080;-75
2021/12/21 10:23:23;;;;;;;6.55;2.75;;;-0.50;99.90;;;;;;5046480;28;20544;-76
2021/12/21 10:25:59;;;;;;;3.88;3.47;;;-0.40;99.90;;;;;;5047428;28;20037;-75
2021/12/21 10:28:42;;;;;;;4.60;2.75;;;-0.40;99.90;;;;;;5044221;28;20085;-76
2021/12/21 10:31:26;;;;;;;5.90;2.88;;;-0.20;99.90;;;;;;5055840;28;20036;-76
2021/12/21 10:33:54;;;;;;;3.97;2.25;;;-0.20;99.90;;;;;;5047712;28;20052;-76
2021/12/21 10:36:20;;;;;;;9.77;3.40;;;-0.10;99.90;;;;;;5020625;28;20343;-75
2021/12/21 10:38:50;;;;;;;9.90;3.97;;;-0.10;99.90;;;;;;5038261;28;20056;-76
2021/12/21 10:41:26;;;;;;;7.13;2.28;;;0.00;99.90;;;;;;5047934;28;20072;-75
2021/12/21 10:44:07;;;;;;;4.25;3.90;;;0.00;99.90;;;;;;5040140;28;20119;-74
2021/12/21 10:46:35;;;;;;;3.85;2.90;;;0.10;99.90;;;;;;5048013;28;20041;-77
2021/12/21 10:49:21;;;;;;;6.72;3.50;;;0.20;99.90;;;;;;5048962;28;20077;-78
2021/12/21 10:52:05;;;;;;;7.15;2.25;;;0.20;99.90;;;;;;5045506;28;20064;-77
2021/12/21 10:54:44;;;;;;;4.55;3.20;;;0.20;99.90;;;;;;5045394;28;20132;-78
2021/12/21 10:57:33;;;;;;;2.45;2.25;;;0.30;99.90;;;;;;5043793;28;20072;-78
2021/12/21 11:00:03;;;;;;;5.35;3.95;;;0.30;99.90;;;;;;5028122;28;20049;-77
2021/12/21 11:02:32;;;;;;;2.97;1.75;;;0.30;99.90;;;;;;5031775;28;20047;-76
2021/12/21 11:05:10;;;;;;;3.50;2.95;;;0.30;99.90;;;;;;5047898;28;20451;-77
2021/12/21 11:07:44;;;;;;;6.45;2.63;;;0.40;99.90;;;;;;5042536;28;20045;-75
2021/12/21 11:10:37;;;;;;;8.82;2.35;;;0.40;99.90;;;;;;5040745;28;20037;-77
2021/12/21 11:13:12;;;;;;;3.22;2.92;;;0.40;99.90;;;;;;5041545;28;20041;-78
2021/12/21 11:15:41;;;;;;;3.47;2.55;;;0.50;99.90;;;;;;5023723;28;20045;-79
2021/12/21 11:18:09;;;;;;;3.20;2.28;;;0.70;99.90;;;;;;5021375;28;20063;-78
2021/12/21 11:20:37;;;;;;;3.45;2.28;;;0.70;99.90;;;;;;5044944;28;20037;-79
2021/12/21 11:23:05;;;;;;;2.55;2.35;;;0.80;99.90;;;;;;5030800;28;20051;-78
2021/12/21 11:25:32;;;;;;;2.53;2.33;;;0.90;99.90;;;;;;5055891;28;20070;-80
2021/12/21 11:28:01;;;;;;;2.65;2.13;;;1.00;99.90;;;;;;5043609;28;20091;-77
2021/12/21 11:30:27;;;;;;;3.03;2.83;;;1.00;99.90;;;;;;5043587;28;20038;-77
2021/12/21 11:32:54;;;;;;;1.95;1.75;;;1.00;99.90;;;;;;5047364;28;20092;-79
2021/12/21 11:37:55;;;;;;;2.97;2.08;;;1.30;99.90;;;;;;5043955;28;20062;-75
2021/12/21 11:40:25;;;;;;;8.02;2.28;;;1.30;99.90;;;;;;5045088;28;20470;-77
2021/12/21 11:42:51;;;;;;;5.93;2.65;;;1.40;99.90;;;;;;5045191;28;20541;-77
2021/12/21 11:45:32;;;;;;;2.30;1.80;;;1.50;99.90;;;;;;5031867;28;20084;-75
2021/12/21 11:48:00;;;;;;;4.03;2.63;;;1.60;99.90;;;;;;5031210;28;20037;-73
2021/12/21 11:50:27;;;;;;;5.22;1.95;;;1.50;99.90;;;;;;5049072;28;20046;-77
2021/12/21 11:52:59;;;;;;;5.55;2.33;;;1.50;99.90;;;;;;5020564;28;20033;-76
2021/12/21 11:55:27;;;;;;;10.52;2.70;;;1.60;99.90;;;;;;5044344;28;20041;-76
2021/12/21 11:57:59;;;;;;;2.03;1.83;;;2.30;99.90;;;;;;5047227;28;20080;-78
2021/12/21 12:00:31;;;;;;;6.43;2.45;;;2.00;99.90;;;;;;5050120;28;20136;-78
2021/12/21 12:03:13;;;;;;;3.95;2.47;;;1.80;99.90;;;;;;5048030;28;20464;-78
2021/12/21 12:05:49;;;;;;;2.30;2.10;;;1.90;99.90;;;;;;5047743;28;20058;-78
2021/12/21 12:08:15;;;;;;;3.33;1.97;;;1.90;99.90;;;;;;5050037;28;20047;-76
2021/12/21 12:10:53;;;;;;;5.82;2.58;;;2.00;99.90;;;;;;5016105;28;20411;-76
2021/12/21 12:13:30;;;;;;;3.42;2.53;;;2.00;99.90;;;;;;5040286;28;20049;-75
2021/12/21 12:16:05;;;;;;;3.08;1.92;;;2.10;99.90;;;;;;5041108;28;20064;-76
2021/12/21 12:18:41;;;;;;;1.67;1.58;;;2.20;99.90;;;;;;5044379;28;20429;-77
2021/12/21 12:21:28;;;;;;;2.67;2.22;;;2.50;99.90;;;;;;5047830;28;20460;-77
2021/12/21 12:23:57;;;;;;;3.58;1.83;;;2.20;99.90;;;;;;5049122;28;20041;-77
2021/12/21 12:26:37;;;;;;;3.72;2.70;;;2.30;99.90;;;;;;5045919;28;20048;-77
2021/12/21 12:29:11;;;;;;;5.75;2.13;;;2.30;99.90;;;;;;5044922;28;20509;-74
2021/12/21 12:31:39;;;;;;;2.83;2.50;;;2.80;99.90;;;;;;5046689;28;20040;-76
2021/12/21 12:34:07;;;;;;;4.43;2.17;;;2.40;99.90;;;;;;5045480;28;20048;-77
2021/12/21 12:36:39;;;;;;;8.68;2.78;;;2.40;99.90;;;;;;5047689;28;20060;-77
2021/12/21 12:39:07;;;;;;;2.28;1.98;;;2.60;99.90;;;;;;5041349;28;20100;-77
2021/12/21 12:41:46;;;;;;;3.10;2.35;;;2.50;99.90;;;;;;5064784;28;20053;-78
2021/12/21 12:44:20;;;;;;;3.53;1.92;;;2.50;99.90;;;;;;5011232;28;20382;-78
2021/12/21 12:46:53;;;;;;;11.20;4.25;;;2.50;99.90;;;;;;5072284;28;20568;-79
2021/12/21 12:49:25;;;;;;;3.97;2.00;;;2.50;99.90;;;;;;5063377;28;20033;-77
2021/12/21 12:51:51;;;;;;;3.72;2.85;;;2.50;99.90;;;;;;5056310;28;20094;-77
2021/12/21 12:54:19;;;;;;;;;;;2.50;99.90;;;;;;5026741;28;20510;-75
2021/12/21 12:56:45;;;;;;;3.13;2.45;;;2.60;99.90;;;;;;5031824;28;19963;-78
2021/12/21 12:59:11;;;;;;;2.85;2.38;;;2.60;99.90;;;;;;5046626;28;20497;-78
2021/12/21 13:01:42;;;;;;;3.42;2.38;;;2.60;99.90;;;;;;5070262;28;20136;-77
2021/12/21 13:04:11;;;;;;;7.85;2.78;;;2.60;99.90;;;;;;5065009;28;20115;-76
2021/12/21 13:06:39;;;;;;;4.88;2.15;;;2.70;99.90;;;;;;5045315;28;20516;-77
2021/12/21 13:09:08;;;;;;;2.90;2.28;;;2.60;99.90;;;;;;5045939;28;20063;-75
2021/12/21 13:11:36;;;;;;;5.13;2.92;;;2.60;99.90;;;;;;5041654;28;20037;-76
2021/12/21 13:14:03;;;;;;;3.13;2.38;;;2.50;99.90;;;;;;5043508;28;20045;-74
2021/12/21 13:16:34;;;;;;;8.20;1.77;;;2.50;99.90;;;;;;5027794;28;20056;-75
2021/12/21 13:19:06;;;;;;;4.45;2.10;;;2.60;99.90;;;;;;5044688;28;20041;-77
2021/12/21 13:21:57;;;;;;;1.73;1.63;;;2.60;99.90;;;;;;5049249;28;20120;-74
2021/12/21 13:24:26;;;;;;;1.85;1.65;;;2.60;99.90;;;;;;5029672;28;20395;-77
2021/12/21 13:26:55;;;;;;;5.78;1.73;;;2.50;99.90;;;;;;5047081;28;20045;-77
2021/12/21 13:29:30;;;;;;;3.25;2.03;;;2.50;99.90;;;;;;5042375;28;20037;-77
2021/12/21 13:31:58;;;;;;;2.30;1.92;;;2.50;99.90;;;;;;5062910;28;20047;-76
2021/12/21 13:34:26;;;;;;;3.78;2.33;;;2.40;99.90;;;;;;5043003;28;20071;-74
2021/12/21 13:36:55;;;;;;;1.52;1.40;;;2.40;99.90;;;;;;5045166;28;20083;-75
2021/12/21 13:39:30;;;;;;;1.75;1.65;;;2.40;99.90;;;;;;5043225;28;20560;-75
2021/12/21 13:42:10;;;;;;;2.80;2.35;;;2.40;99.90;;;;;;5042989;28;20045;-76
2021/12/21 13:44:43;;;;;;;4.57;2.83;;;2.40;99.90;;;;;;5070194;28;20454;-75
2021/12/21 13:47:28;;;;;;;3.00;2.42;;;2.40;99.90;;;;;;5047966;28;20490;-77
2021/12/21 13:50:12;;;;;;;4.75;2.42;;;2.40;99.90;;;;;;5041796;28;20045;-75
2021/12/21 13:52:44;;;;;;;2.08;1.85;;;2.30;99.90;;;;;;5060654;28;20052;-76
2021/12/21 13:55:40;;;;;;;2.38;1.92;;;2.20;99.90;;;;;;5042892;28;20124;-75
2021/12/21 13:58:08;;;;;;;3.40;1.90;;;2.20;99.90;;;;;;5041174;28;20049;-74
2021/12/21 14:00:42;;;;;;;4.57;3.17;;;2.20;99.90;;;;;;5045964;28;20426;-75
2021/12/21 14:05:57;;;;;;;2.65;2.40;;;2.70;99.90;;;;;;5042415;28;20072;-76
2021/12/21 14:08:23;;;;;;;1.27;1.17;;;2.90;99.90;;;;;;5043379;28;20336;-74
2021/12/21 14:10:50;;;;;;;;;;;3.10;99.90;;;;;;5051153;28;20746;-75
2021/12/21 14:13:36;;;;;;;3.25;1.98;;;3.30;99.90;;;;;;5044028;28;20346;-78
2021/12/21 14:16:12;;;;;;;2.88;1.63;;;3.60;99.90;;;;;;5040619;28;20049;-74
2021/12/21 14:18:44;;;;;;;5.15;2.95;;;3.80;99.90;;;;;;5041884;28;20049;-78
2021/12/21 14:21:16;;;;;;;2.25;1.95;;;4.00;99.90;;;;;;5056579;28;20051;-75
2021/12/21 14:23:46;;;;;;;7.40;2.60;;;4.10;99.90;;;;;;5044153;28;20037;-76
2021/12/21 14:26:13;;;;;;;15.63;2.55;;;4.10;99.90;;;;;;5042523;28;20076;-76
2021/12/21 14:28:54;;;;;;;2.17;1.75;;;4.10;99.90;;;;;;5044644;28;20522;-75
2021/12/21 14:31:24;;;;;;;3.25;2.20;;;3.90;99.90;;;;;;5040974;28;20138;-76
2021/12/21 14:33:55;;;;;;;1.27;1.17;;;3.30;99.90;;;;;;5041485;28;20098;-76
2021/12/21 14:36:23;;;;;;;2.65;2.42;;;3.00;99.90;;;;;;5052256;28;20103;-76
2021/12/21 14:38:58;;;;;;;2.58;2.38;;;2.70;99.90;;;;;;5042612;28;20048;-78